Terminal Aerodrome Forecast
Issued by NWS Austin/San Antonio, TX

Home | Current Version | Previous Version | Text Only | Print | Product List | Glossary On
Versions: 1 2 3 4 5 6 7 8 9 10 11
064
FTUS44 KEWX 132331
TAFDRT
TAF
KDRT 132331Z 1400/1424 13013KT P6SM SKC
     FM140900 12010KT P6SM OVC011
     FM141200 12010KT 3SM BR OVC004
     FM141500 14009KT P6SM BKN009
     FM141800 14011KT P6SM SCT025=

USA.gov is the U.S. government's official web portal to all federal, state and local government web resources and services.